Time;durP1;ratioP1;P1;durP2;ratioP2;P2;SDS_P1;SDS_P2;PMS_P1;PMS_P2;Temp;Humidity;BMP_temperature;BMP_pressure;BME280_temperature;BME280_humidity;BME280_pressure;Samples;Min_cycle;Max_cycle;Signal;HPM_P1;HPM_P2
2022/03/10 06:20:38;;;;;;;9.80;2.87;;;;;;;;;;5056445;28;20108;-74
2022/03/10 06:23:04;;;;;;;3.40;1.67;;;;;;;;;;5065736;28;20085;-74
2022/03/10 06:25:31;;;;;;;6.57;2.10;;;;;;;;;;5067778;28;20032;-74
2022/03/10 06:27:58;;;;;;;6.73;2.43;;;;;;;;;;5067633;28;20047;-74
2022/03/10 06:30:24;;;;;;;5.00;2.13;;;;;;;;;;5070371;28;20024;-74
2022/03/10 06:32:51;;;;;;;6.83;2.10;;;;;;;;;;5060616;28;20025;-74
2022/03/10 06:35:18;;;;;;;5.97;2.10;;;;;;;;;;5052725;28;20163;-74
2022/03/10 06:37:46;;;;;;;14.47;2.73;;;;;;;;;;5052850;28;20125;-74
2022/03/10 06:40:13;;;;;;;3.67;1.80;;;;;;;;;;5052872;28;20074;-74
2022/03/10 06:42:39;;;;;;;5.03;2.20;;;;;;;;;;5059166;28;20028;-74
2022/03/10 06:45:06;;;;;;;5.40;2.10;;;;;;;;;;5067603;28;20033;-74
2022/03/10 06:47:33;;;;;;;3.57;2.00;;;;;;;;;;5067606;28;20039;-74
2022/03/10 06:50:00;;;;;;;8.70;2.03;;;;;;;;;;5067246;28;20020;-74
2022/03/10 06:52:31;;;;;;;3.50;1.40;;;;;;;;;;5061576;28;20029;-74
2022/03/10 06:54:57;;;;;;;3.60;1.83;;;;;;;;;;5052651;28;20029;-74
2022/03/10 06:57:24;;;;;;;4.33;1.73;;;;;;;;;;5052484;28;20468;-74
2022/03/10 06:59:51;;;;;;;5.43;2.00;;;;;;;;;;5052507;28;20025;-74
2022/03/10 07:02:18;;;;;;;4.73;1.93;;;;;;;;;;5058234;28;20115;-74
2022/03/10 07:04:44;;;;;;;7.33;1.97;;;;;;;;;;5069539;28;20028;-74
2022/03/10 07:07:11;;;;;;;5.57;1.90;;;;;;;;;;5066999;28;20033;-74
2022/03/10 07:09:38;;;;;;;4.00;1.77;;;;;;;;;;5066472;28;20483;-75
2022/03/10 07:12:05;;;;;;;4.40;1.63;;;;;;;;;;5062832;28;20021;-74
2022/03/10 07:14:31;;;;;;;3.67;1.87;;;;;;;;;;5048774;28;20075;-74
2022/03/10 07:16:58;;;;;;;5.73;2.17;;;;;;;;;;5052191;28;20044;-74
2022/03/10 07:19:25;;;;;;;7.73;2.50;;;;;;;;;;5052182;28;20107;-74
2022/03/10 07:21:51;;;;;;;5.20;2.60;;;;;;;;;;5053701;28;20033;-74
2022/03/10 07:24:18;;;;;;;7.60;2.10;;;;;;;;;;5072247;28;20433;-74
2022/03/10 07:26:45;;;;;;;8.30;1.90;;;;;;;;;;5069957;28;20028;-74
2022/03/10 07:29:11;;;;;;;5.27;2.93;;;;;;;;;;5067017;28;20025;-74
2022/03/10 07:31:38;;;;;;;8.57;2.30;;;;;;;;;;5066464;28;20027;-75
2022/03/10 07:34:05;;;;;;;6.67;1.70;;;;;;;;;;5047035;28;20399;-74
2022/03/10 07:36:32;;;;;;;5.00;1.97;;;;;;;;;;5047474;28;20070;-74
2022/03/10 07:38:59;;;;;;;8.37;1.77;;;;;;;;;;5052086;28;20043;-74
2022/03/10 07:41:25;;;;;;;6.67;2.10;;;;;;;;;;5052089;28;20130;-74
2022/03/10 07:43:52;;;;;;;4.10;1.90;;;;;;;;;;5068672;28;20024;-74
2022/03/10 07:46:22;;;;;;;5.90;2.63;;;;;;;;;;5071960;28;20498;-74
2022/03/10 07:48:50;;;;;;;5.47;2.07;;;;;;;;;;5070566;28;20075;-74
2022/03/10 07:51:17;;;;;;;5.27;2.23;;;;;;;;;;5066470;28;20020;-74
2022/03/10 07:53:43;;;;;;;7.50;2.30;;;;;;;;;;5049709;28;20091;-74
2022/03/10 07:56:10;;;;;;;6.00;2.87;;;;;;;;;;5046725;28;20021;-74
2022/03/10 07:58:37;;;;;;;6.80;2.17;;;;;;;;;;5052683;28;20020;-74
2022/03/10 08:01:03;;;;;;;3.57;1.67;;;;;;;;;;5071754;28;20082;-74
2022/03/10 08:03:30;;;;;;;7.03;1.70;;;;;;;;;;5071832;28;20032;-74
2022/03/10 08:05:57;;;;;;;3.20;1.50;;;;;;;;;;5071816;28;20471;-74
2022/03/10 08:08:23;;;;;;;5.23;2.10;;;;;;;;;;5068272;28;20021;-74
2022/03/10 08:10:50;;;;;;;5.93;2.20;;;;;;;;;;5050854;28;20028;-74
2022/03/10 08:13:18;;;;;;;3.33;1.70;;;;;;;;;;5046342;28;20771;-74
2022/03/10 08:15:45;;;;;;;5.00;1.60;;;;;;;;;;5046685;28;20025;-74
2022/03/10 08:18:13;;;;;;;4.83;1.53;;;;;;;;;;5047499;28;20541;-74
2022/03/10 08:20:40;;;;;;;5.60;2.47;;;;;;;;;;5068662;28;20471;-74
2022/03/10 08:23:07;;;;;;;7.03;1.70;;;;;;;;;;5075421;28;20021;-74
2022/03/10 08:25:36;;;;;;;3.70;2.13;;;;;;;;;;5074916;28;20017;-73
2022/03/10 08:28:04;;;;;;;6.80;2.00;;;;;;;;;;5074886;28;20117;-74
2022/03/10 08:30:30;;;;;;;5.37;2.67;;;;;;;;;;5075057;28;20024;-73
2022/03/10 08:32:57;;;;;;;3.93;1.53;;;;;;;;;;5072783;28;20031;-74
2022/03/10 08:35:24;;;;;;;5.00;2.10;;;;;;;;;;5069866;28;20499;-74
2022/03/10 08:37:51;;;;;;;6.87;1.93;;;;;;;;;;5069987;28;20025;-74
2022/03/10 08:40:19;;;;;;;3.93;2.17;;;;;;;;;;5051487;28;20025;-73
2022/03/10 08:42:46;;;;;;;4.57;1.87;;;;;;;;;;5049779;28;20025;-73
2022/03/10 08:45:13;;;;;;;3.53;1.87;;;;;;;;;;5054853;28;20437;-73
2022/03/10 08:47:41;;;;;;;3.90;1.80;;;;;;;;;;5054970;28;20033;-73
2022/03/10 08:50:08;;;;;;;3.80;1.70;;;;;;;;;;5054999;28;20025;-73
2022/03/10 08:52:35;;;;;;;3.13;1.47;;;;;;;;;;5071840;28;20448;-73
2022/03/10 08:55:03;;;;;;;5.10;2.33;;;;;;;;;;5074821;28;20016;-73
2022/03/10 08:57:30;;;;;;;5.50;1.70;;;;;;;;;;5069137;28;20028;-74
2022/03/10 08:59:56;;;;;;;4.37;1.97;;;;;;;;;;5068417;28;20447;-74
2022/03/10 09:02:23;;;;;;;5.70;2.03;;;;;;;;;;5053695;28;20017;-73
2022/03/10 09:04:50;;;;;;;5.80;2.40;;;;;;;;;;5049519;28;20060;-73
2022/03/10 09:07:17;;;;;;;4.17;1.90;;;;;;;;;;5053951;28;20044;-74
2022/03/10 09:09:44;;;;;;;2.67;1.73;;;;;;;;;;5054305;28;20017;-73
2022/03/10 09:12:12;;;;;;;5.13;1.50;;;;;;;;;;5067439;28;20029;-73
2022/03/10 09:14:39;;;;;;;4.07;1.90;;;;;;;;;;5074397;28;20291;-74
2022/03/10 09:17:06;;;;;;;6.47;1.57;;;;;;;;;;5074622;28;20020;-73
2022/03/10 09:19:32;;;;;;;8.20;2.07;;;;;;;;;;5069201;28;20024;-74
2022/03/10 09:21:59;;;;;;;5.17;1.63;;;;;;;;;;5057062;28;20025;-74
2022/03/10 09:24:26;;;;;;;4.50;2.00;;;;;;;;;;5049086;28;20621;-73
2022/03/10 09:26:53;;;;;;;2.43;1.47;;;;;;;;;;5048629;28;20293;-73
2022/03/10 09:29:19;;;;;;;6.60;2.17;;;;;;;;;;5052720;28;20100;-73
2022/03/10 09:31:46;;;;;;;3.03;1.90;;;;;;;;;;5062623;28;20269;-73
2022/03/10 09:34:13;;;;;;;4.20;1.83;;;;;;;;;;5074073;28;20815;-73
2022/03/10 09:36:39;;;;;;;4.70;1.83;;;;;;;;;;5074058;28;20265;-73
2022/03/10 09:39:06;;;;;;;3.57;1.80;;;;;;;;;;5072217;28;20258;-73
2022/03/10 09:41:33;;;;;;;5.13;2.17;;;;;;;;;;5069629;28;20261;-74
2022/03/10 09:44:00;;;;;;;4.57;1.40;;;;;;;;;;5068368;28;20257;-72
2022/03/10 09:46:27;;;;;;;3.53;1.87;;;;;;;;;;5068605;28;20297;-71
2022/03/10 09:48:54;;;;;;;8.77;2.50;;;;;;;;;;5054208;28;20282;-72
2022/03/10 09:51:23;;;;;;;5.10;1.93;;;;;;;;;;5052190;28;20265;-71
2022/03/10 09:53:49;;;;;;;3.83;1.87;;;;;;;;;;5053849;28;20258;-71
2022/03/10 09:56:19;;;;;;;8.87;2.13;;;;;;;;;;5053672;28;20250;-71
2022/03/10 09:58:45;;;;;;;3.30;1.83;;;;;;;;;;5065953;28;20277;-72
2022/03/10 10:01:12;;;;;;;6.17;2.03;;;;;;;;;;5057850;28;20272;-71
2022/03/10 10:03:38;;;;;;;5.83;2.23;;;;;;;;;;5049393;28;20262;-72
2022/03/10 10:06:05;;;;;;;4.37;2.00;;;;;;;;;;5048394;28;20339;-72
2022/03/10 10:08:34;;;;;;;4.00;2.20;;;;;;;;;;5052491;28;20594;-70
2022/03/10 10:11:01;;;;;;;6.20;2.23;;;;;;;;;;5062426;28;20601;-71
2022/03/10 10:13:29;;;;;;;3.97;2.07;;;;;;;;;;5053977;28;20254;-70
2022/03/10 10:15:57;;;;;;;11.23;2.10;;;;;;;;;;5055325;28;20282;-68
2022/03/10 10:18:23;;;;;;;11.47;2.80;;;;;;;;;;5073661;28;20755;-68
2022/03/10 10:20:51;;;;;;;5.37;2.17;;;;;;;;;;5072458;28;20344;-67
2022/03/10 10:23:20;;;;;;;4.43;2.37;;;;;;;;;;5072719;28;20755;-71
2022/03/10 10:25:54;;;;;;;4.77;2.43;;;;;;;;;;5055847;28;20254;-72
2022/03/10 10:28:28;;;;;;;5.50;1.97;;;;;;;;;;5047820;28;20796;-72
2022/03/10 10:31:07;;;;;;;8.80;2.27;;;;;;;;;;5059120;28;20281;-72
2022/03/10 10:33:35;;;;;;;3.33;2.07;;;;;;;;;;5067773;28;20816;-73
2022/03/10 10:36:14;;;;;;;6.23;2.27;;;;;;;;;;5071807;28;20272;-72
2022/03/10 10:38:42;;;;;;;4.60;2.33;;;;;;;;;;5072512;28;20238;-75
2022/03/10 10:41:20;;;;;;;4.03;1.97;;;;;;;;;;5059621;28;20336;-74
2022/03/10 10:43:49;;;;;;;6.40;2.10;;;;;;;;;;5052103;28;20250;-74
2022/03/10 10:46:29;;;;;;;6.30;3.00;;;;;;;;;;5052601;28;20278;-74
2022/03/10 10:48:56;;;;;;;4.40;1.83;;;;;;;;;;5047298;28;20342;-73
2022/03/10 10:51:29;;;;;;;3.57;1.80;;;;;;;;;;5061873;28;20293;-73
2022/03/10 10:53:56;;;;;;;4.83;1.90;;;;;;;;;;5067833;28;20253;-73
2022/03/10 10:56:24;;;;;;;3.67;2.13;;;;;;;;;;5067652;28;20605;-74
2022/03/10 10:58:52;;;;;;;4.83;2.13;;;;;;;;;;5072737;28;20253;-72
2022/03/10 11:01:36;;;;;;;5.93;2.20;;;;;;;;;;5058337;28;20274;-72
2022/03/10 11:04:04;;;;;;;5.80;2.67;;;;;;;;;;5052543;28;20250;-72
2022/03/10 11:06:31;;;;;;;7.97;2.47;;;;;;;;;;5052401;28;20320;-72
2022/03/10 11:08:58;;;;;;;3.97;2.07;;;;;;;;;;5051125;28;20258;-72
2022/03/10 11:11:25;;;;;;;5.90;1.93;;;;;;;;;;5061050;28;20273;-72
2022/03/10 11:13:52;;;;;;;4.77;1.80;;;;;;;;;;5066862;28;20323;-72
2022/03/10 11:16:20;;;;;;;3.70;2.03;;;;;;;;;;5067133;28;20311;-73
2022/03/10 11:18:50;;;;;;;5.07;1.97;;;;;;;;;;5067625;28;20341;-72
2022/03/10 11:21:20;;;;;;;7.90;2.07;;;;;;;;;;5058964;28;20262;-72
2022/03/10 11:23:46;;;;;;;4.30;1.83;;;;;;;;;;5052339;28;20268;-72
2022/03/10 11:26:16;;;;;;;7.97;2.90;;;;;;;;;;5051762;28;20290;-73
2022/03/10 11:28:47;;;;;;;5.90;2.70;;;;;;;;;;5051821;28;20269;-72
2022/03/10 11:31:14;;;;;;;4.37;2.57;;;;;;;;;;5063139;28;20269;-72
2022/03/10 11:33:43;;;;;;;7.30;2.53;;;;;;;;;;5066948;28;20261;-72
2022/03/10 11:36:23;;;;;;;4.57;2.20;;;;;;;;;;5067015;28;20254;-72
2022/03/10 11:39:06;;;;;;;10.30;2.30;;;;;;;;;;5066747;28;20717;-72
2022/03/10 11:41:53;;;;;;;4.83;2.50;;;;;;;;;;5053377;28;20266;-73
2022/03/10 11:44:20;;;;;;;5.47;2.10;;;;;;;;;;5052169;28;20316;-72
2022/03/10 11:46:57;;;;;;;2.77;1.83;;;;;;;;;;5051755;28;20282;-72
2022/03/10 11:49:27;;;;;;;4.57;1.90;;;;;;;;;;5052095;28;20265;-73
2022/03/10 11:51:56;;;;;;;3.57;1.80;;;;;;;;;;5068818;28;20383;-73
2022/03/10 11:54:23;;;;;;;9.33;2.87;;;;;;;;;;5068910;28;20273;-72
2022/03/10 11:56:55;;;;;;;4.73;2.33;;;;;;;;;;5071039;28;20261;-73
2022/03/10 11:59:34;;;;;;;11.27;2.50;;;;;;;;;;5070166;28;20344;-72
2022/03/10 12:02:02;;;;;;;6.63;2.10;;;;;;;;;;5052367;28;20270;-72
2022/03/10 12:04:55;;;;;;;5.90;2.30;;;;;;;;;;5053539;28;20250;-72
2022/03/10 12:07:27;;;;;;;7.40;1.80;;;;;;;;;;5053375;28;20718;-72
2022/03/10 12:10:08;;;;;;;3.90;2.13;;;;;;;;;;5055659;28;20258;-72
2022/03/10 12:12:53;;;;;;;3.57;1.93;;;;;;;;;;5055564;28;20261;-72
2022/03/10 12:15:29;;;;;;;4.93;2.08;;;;;;;;;;5054948;28;20246;-73
2022/03/10 12:17:56;;;;;;;4.67;2.07;;;;;;;;;;5050227;28;20027;-73
2022/03/10 12:20:24;;;;;;;4.00;2.20;;;;;;;;;;5053904;28;20280;-73
2022/03/10 12:23:12;;;;;;;4.53;2.27;;;;;;;;;;5070083;28;20253;-72
2022/03/10 12:25:55;;;;;;;6.33;2.47;;;;;;;;;;5071124;28;20273;-72
2022/03/10 12:28:24;;;;;;;5.13;2.90;;;;;;;;;;5075302;28;20364;-73
2022/03/10 12:31:00;;;;;;;6.20;2.40;;;;;;;;;;5067527;28;20281;-73
2022/03/10 12:33:26;;;;;;;4.73;2.57;;;;;;;;;;5054884;28;20246;-72
2022/03/10 12:35:55;;;;;;;4.87;2.60;;;;;;;;;;5055063;28;20265;-72
2022/03/10 12:38:39;;;;;;;5.47;2.30;;;;;;;;;;5052845;28;20254;-72
2022/03/10 12:41:06;;;;;;;4.60;1.80;;;;;;;;;;5058941;28;20667;-72
2022/03/10 12:43:33;;;;;;;8.90;2.17;;;;;;;;;;5069533;28;20289;-73
2022/03/10 12:46:00;;;;;;;3.57;1.77;;;;;;;;;;5069769;28;20296;-72
2022/03/10 12:48:44;;;;;;;4.33;2.60;;;;;;;;;;5072163;28;20261;-72
2022/03/10 12:51:24;;;;;;;3.55;1.77;;;;;;;;;;5064533;28;20259;-72
2022/03/10 12:53:52;;;;;;;15.70;2.27;;;;;;;;;;5054450;28;20083;-72
2022/03/10 12:56:19;;;;;;;7.93;2.30;;;;;;;;;;5054976;28;20261;-73
2022/03/10 12:58:47;;;;;;;6.37;2.40;;;;;;;;;;5054832;28;20337;-73
2022/03/10 13:01:14;;;;;;;7.13;2.60;;;;;;;;;;5060644;28;20344;-73
2022/03/10 13:03:49;;;;;;;4.33;2.17;;;;;;;;;;5069559;28;20307;-72
2022/03/10 13:06:17;;;;;;;4.73;2.40;;;;;;;;;;5049745;28;20285;-72
2022/03/10 13:08:50;;;;;;;4.43;2.00;;;;;;;;;;5049744;28;20675;-73
2022/03/10 13:11:21;;;;;;;6.17;2.23;;;;;;;;;;5053094;28;20254;-73
2022/03/10 13:13:48;;;;;;;9.07;2.43;;;;;;;;;;5054434;28;20266;-72
2022/03/10 13:16:14;;;;;;;9.23;2.60;;;;;;;;;;5070593;28;20849;-72
2022/03/10 13:18:42;;;;;;;5.70;2.50;;;;;;;;;;5074502;28;20253;-72
2022/03/10 13:21:09;;;;;;;12.83;2.73;;;;;;;;;;5074229;28;20262;-72
2022/03/10 13:23:36;;;;;;;6.90;3.47;;;;;;;;;;5070077;28;20261;-72
2022/03/10 13:26:03;;;;;;;11.53;2.83;;;;;;;;;;5053999;28;20381;-73
2022/03/10 13:28:32;;;;;;;12.37;3.90;;;;;;;;;;5048987;28;20281;-73
2022/03/10 13:30:58;;;;;;;7.60;2.93;;;;;;;;;;5049218;28;20281;-72
2022/03/10 13:33:26;;;;;;;8.40;3.37;;;;;;;;;;5052231;28;20294;-72
2022/03/10 13:35:57;;;;;;;12.00;3.27;;;;;;;;;;5066656;28;20265;-73
2022/03/10 13:38:28;;;;;;;9.83;3.73;;;;;;;;;;5074188;28;20269;-73
2022/03/10 13:41:01;;;;;;;8.27;3.07;;;;;;;;;;5073811;28;20763;-73
2022/03/10 13:43:32;;;;;;;13.00;2.70;;;;;;;;;;5073922;28;20791;-73
2022/03/10 13:46:20;;;;;;;8.83;3.70;;;;;;;;;;5055000;28;20308;-73
2022/03/10 13:48:47;;;;;;;14.07;4.57;;;;;;;;;;5048511;28;20289;-73
2022/03/10 13:51:15;;;;;;;16.63;5.80;;;;;;;;;;5048681;28;20083;-74
2022/03/10 13:53:52;;;;;;;14.57;6.20;;;;;;;;;;5048545;28;20033;-74
2022/03/10 13:56:27;;;;;;;18.53;7.60;;;;;;;;;;5064308;28;20060;-72
2022/03/10 13:58:54;;;;;;;;;;;;;;;;;;5064471;28;20138;-70
2022/03/10 14:01:25;;;;;;;19.00;9.03;;;;;;;;;;5061807;28;20347;-74
2022/03/10 14:03:53;;;;;;;19.13;8.90;;;;;;;;;;5053622;28;20017;-74
2022/03/10 14:06:20;;;;;;;20.63;9.60;;;;;;;;;;5070532;28;20067;-74
2022/03/10 14:08:53;;;;;;;17.47;8.83;;;;;;;;;;5067278;28;20077;-74
2022/03/10 14:11:22;;;;;;;17.93;8.80;;;;;;;;;;5068128;28;20032;-75
2022/03/10 14:13:49;;;;;;;17.87;8.27;;;;;;;;;;5057451;28;20017;-74
2022/03/10 14:16:17;;;;;;;18.83;8.23;;;;;;;;;;5068517;28;20456;-74
2022/03/10 14:18:51;;;;;;;21.23;10.43;;;;;;;;;;5073226;28;20025;-74
2022/03/10 14:21:18;;;;;;;31.97;11.97;;;;;;;;;;5073030;28;20031;-74
2022/03/10 14:23:55;;;;;;;21.37;9.67;;;;;;;;;;5072249;28;20024;-74
2022/03/10 14:26:22;;;;;;;22.87;9.93;;;;;;;;;;5073092;28;20128;-74
2022/03/10 14:28:49;;;;;;;26.40;10.93;;;;;;;;;;5072015;28;20507;-74
2022/03/10 14:31:17;;;;;;;21.17;10.73;;;;;;;;;;5055546;28;20032;-74
2022/03/10 14:33:45;;;;;;;24.80;10.07;;;;;;;;;;5065567;28;20049;-74
2022/03/10 14:36:13;;;;;;;22.77;8.90;;;;;;;;;;5067709;28;20021;-74
2022/03/10 14:38:40;;;;;;;21.87;9.17;;;;;;;;;;5067327;28;20021;-74
2022/03/10 14:41:08;;;;;;;25.80;8.50;;;;;;;;;;5061773;28;20033;-74
2022/03/10 14:43:35;;;;;;;28.20;8.83;;;;;;;;;;5052817;28;20028;-74
2022/03/10 14:46:02;;;;;;;19.83;7.73;;;;;;;;;;5052942;28;20028;-74
2022/03/10 14:48:29;;;;;;;16.13;7.37;;;;;;;;;;5051828;28;20016;-74
2022/03/10 14:50:56;;;;;;;17.57;7.07;;;;;;;;;;5059910;28;20078;-75
2022/03/10 14:53:22;;;;;;;17.67;6.30;;;;;;;;;;5067373;28;20035;-74
2022/03/10 14:55:49;;;;;;;10.60;4.43;;;;;;;;;;5067306;28;20475;-74
2022/03/10 14:58:16;;;;;;;22.10;5.07;;;;;;;;;;5067424;28;20475;-74
2022/03/10 15:00:43;;;;;;;10.93;3.83;;;;;;;;;;5060511;28;20120;-74
2022/03/10 15:03:09;;;;;;;15.83;3.67;;;;;;;;;;5052064;28;20368;-75
2022/03/10 15:05:37;;;;;;;9.23;4.70;;;;;;;;;;5066068;28;20059;-74
2022/03/10 15:08:04;;;;;;;8.10;3.90;;;;;;;;;;5072331;28;20490;-74
2022/03/10 15:10:31;;;;;;;9.10;3.33;;;;;;;;;;5071631;28;20020;-74
2022/03/10 15:12:58;;;;;;;14.17;3.63;;;;;;;;;;5071961;28;20020;-74
2022/03/10 15:15:30;;;;;;;10.67;3.00;;;;;;;;;;5066943;28;20017;-75
2022/03/10 15:17:57;;;;;;;6.13;2.97;;;;;;;;;;5066816;28;20021;-75
2022/03/10 15:20:24;;;;;;;9.60;3.17;;;;;;;;;;5063577;28;20056;-75
2022/03/10 15:23:02;;;;;;;8.60;3.43;;;;;;;;;;5046954;28;20028;-75
2022/03/10 15:25:36;;;;;;;8.07;3.27;;;;;;;;;;5052300;28;20028;-74
2022/03/10 15:28:04;;;;;;;10.07;2.83;;;;;;;;;;5052097;28;20076;-74
2022/03/10 15:30:31;;;;;;;9.17;3.60;;;;;;;;;;5059102;28;20348;-75
2022/03/10 15:32:58;;;;;;;5.60;2.90;;;;;;;;;;5072268;28;20438;-75
2022/03/10 15:35:26;;;;;;;8.17;3.03;;;;;;;;;;5071309;28;20032;-75
2022/03/10 15:37:53;;;;;;;9.43;3.47;;;;;;;;;;5066726;28;20640;-75
2022/03/10 15:40:21;;;;;;;7.20;3.13;;;;;;;;;;5059906;28;20021;-74
2022/03/10 15:42:48;;;;;;;8.17;3.10;;;;;;;;;;5046804;28;20024;-75
2022/03/10 15:45:15;;;;;;;10.70;3.27;;;;;;;;;;5046850;28;20519;-75
2022/03/10 15:47:42;;;;;;;7.67;2.87;;;;;;;;;;5051967;28;20480;-75
2022/03/10 15:50:09;;;;;;;11.23;3.37;;;;;;;;;;5056360;28;20029;-74
2022/03/10 15:52:36;;;;;;;8.87;3.10;;;;;;;;;;5072058;28;20025;-75
2022/03/10 15:55:04;;;;;;;15.63;4.40;;;;;;;;;;5071983;28;20472;-75
2022/03/10 15:57:31;;;;;;;11.97;3.70;;;;;;;;;;5070895;28;20028;-75
2022/03/10 16:00:01;;;;;;;9.20;3.50;;;;;;;;;;5049419;28;20032;-75
2022/03/10 16:02:28;;;;;;;11.27;3.33;;;;;;;;;;5046655;28;20387;-75
2022/03/10 16:04:55;;;;;;;20.00;3.83;;;;;;;;;;5054895;28;20029;-75
2022/03/10 16:07:25;;;;;;;10.70;3.33;;;;;;;;;;5066709;28;20064;-74
2022/03/10 16:09:52;;;;;;;10.97;2.73;;;;;;;;;;5053915;28;20100;-75
2022/03/10 16:12:20;;;;;;;7.17;3.00;;;;;;;;;;5051825;28;20027;-76
2022/03/10 16:14:47;;;;;;;7.53;3.13;;;;;;;;;;5051463;28;20070;-75
2022/03/10 16:17:15;;;;;;;8.30;3.47;;;;;;;;;;5051830;28;20031;-75
2022/03/10 16:19:43;;;;;;;11.90;3.60;;;;;;;;;;5066291;28;20031;-75
2022/03/10 16:22:10;;;;;;;10.53;3.80;;;;;;;;;;5066492;28;20091;-75
2022/03/10 16:24:37;;;;;;;12.03;3.40;;;;;;;;;;5066537;28;20025;-75
2022/03/10 16:27:04;;;;;;;12.03;3.37;;;;;;;;;;5066277;28;20048;-75
2022/03/10 16:29:31;;;;;;;10.27;4.00;;;;;;;;;;5065990;28;20038;-75
2022/03/10 16:32:02;;;;;;;14.67;3.67;;;;;;;;;;5057427;28;20107;-75
2022/03/10 16:34:29;;;;;;;8.23;4.20;;;;;;;;;;5051429;28;20025;-75
2022/03/10 16:36:56;;;;;;;8.47;3.73;;;;;;;;;;5051466;28;20104;-74
2022/03/10 16:39:23;;;;;;;10.43;3.67;;;;;;;;;;5051576;28;20021;-75
2022/03/10 16:41:50;;;;;;;13.82;3.67;;;;;;;;;;5052830;28;20484;-75
2022/03/10 16:44:17;;;;;;;11.88;3.42;;;;;;;;;;5049524;28;20036;-75
2022/03/10 16:46:45;;;;;;;10.77;3.22;;;;;;;;;;5049629;28;20039;-75
2022/03/10 16:49:13;;;;;;;9.90;3.38;;;;;;;;;;5050079;28;20036;-75
2022/03/10 16:51:40;;;;;;;23.10;4.22;;;;;;;;;;5059692;28;20051;-75
2022/03/10 16:54:06;;;;;;;13.40;3.47;;;;;;;;;;5074977;28;20082;-75
2022/03/10 16:56:33;;;;;;;17.55;4.18;;;;;;;;;;5064358;28;20025;-75
2022/03/10 16:59:01;;;;;;;7.80;3.20;;;;;;;;;;5054750;28;20109;-75
2022/03/10 17:01:29;;;;;;;7.80;2.90;;;;;;;;;;5054577;28;20029;-75
2022/03/10 17:03:57;;;;;;;14.38;3.83;;;;;;;;;;5054636;28;20029;-75
2022/03/10 17:06:25;;;;;;;13.80;3.38;;;;;;;;;;5057074;28;20028;-71
2022/03/10 17:08:51;;;;;;;13.13;3.10;;;;;;;;;;5069788;28;20507;-72
2022/03/10 17:11:18;;;;;;;8.82;3.35;;;;;;;;;;5058630;28;20621;-75
2022/03/10 17:13:45;;;;;;;5.72;3.40;;;;;;;;;;5049553;28;20104;-74
2022/03/10 17:16:11;;;;;;;11.00;3.03;;;;;;;;;;5053970;28;20029;-74
2022/03/10 17:18:38;;;;;;;7.45;3.28;;;;;;;;;;5054753;28;20032;-75
2022/03/10 17:21:05;;;;;;;8.77;3.22;;;;;;;;;;5054606;28;20357;-75
2022/03/10 17:23:32;;;;;;;13.63;2.97;;;;;;;;;;5065716;28;20021;-74
2022/03/10 17:25:59;;;;;;;11.40;2.65;;;;;;;;;;5074447;28;20387;-74
2022/03/10 17:28:25;;;;;;;9.85;3.30;;;;;;;;;;5069036;28;20475;-75
2022/03/10 17:30:52;;;;;;;10.68;2.67;;;;;;;;;;5069163;28;20066;-75
2022/03/10 17:33:19;;;;;;;13.45;3.20;;;;;;;;;;5069008;28;20020;-74
2022/03/10 17:35:46;;;;;;;17.48;3.30;;;;;;;;;;5069342;28;20510;-75
2022/03/10 17:38:12;;;;;;;7.68;3.30;;;;;;;;;;5058421;28;20087;-74
2022/03/10 17:40:39;;;;;;;8.20;2.70;;;;;;;;;;5056523;28;20357;-75
2022/03/10 17:43:06;;;;;;;8.15;2.45;;;;;;;;;;5074091;28;20123;-74
2022/03/10 17:45:33;;;;;;;10.95;2.58;;;;;;;;;;5074208;28;20463;-74
2022/03/10 17:48:00;;;;;;;9.30;2.80;;;;;;;;;;5073482;28;20044;-74
2022/03/10 17:50:27;;;;;;;10.23;3.20;;;;;;;;;;5069126;28;20086;-74
2022/03/10 17:52:56;;;;;;;10.75;2.38;;;;;;;;;;5047247;28;20035;-74
2022/03/10 17:55:23;;;;;;;9.25;2.47;;;;;;;;;;5048856;28;20021;-75
2022/03/10 17:57:49;;;;;;;7.90;2.65;;;;;;;;;;5048558;28;20039;-75
2022/03/10 18:00:16;;;;;;;9.65;2.95;;;;;;;;;;5052462;28;20022;-75
2022/03/10 18:02:45;;;;;;;4.68;2.47;;;;;;;;;;5053868;28;20549;-75
2022/03/10 18:05:12;;;;;;;9.32;2.95;;;;;;;;;;5064171;28;20047;-74
2022/03/10 18:07:40;;;;;;;6.63;2.90;;;;;;;;;;5073623;28;20039;-74
2022/03/10 18:10:07;;;;;;;13.07;2.80;;;;;;;;;;5073572;28;20067;-74
2022/03/10 18:12:34;;;;;;;6.20;2.17;;;;;;;;;;5068209;28;20387;-75
2022/03/10 18:15:01;;;;;;;11.18;2.70;;;;;;;;;;5068269;28;20035;-76
2022/03/10 18:17:28;;;;;;;8.52;2.72;;;;;;;;;;5065494;28;20461;-75
2022/03/10 18:19:54;;;;;;;11.18;3.35;;;;;;;;;;5067905;28;20029;-75
2022/03/10 18:22:21;;;;;;;8.15;2.40;;;;;;;;;;5071514;28;20029;-75
2022/03/10 18:24:50;;;;;;;9.32;2.60;;;;;;;;;;5073427;28;20021;-74
2022/03/10 18:27:17;;;;;;;13.52;2.67;;;;;;;;;;5070952;28;20391;-75
2022/03/10 18:29:44;;;;;;;6.00;2.00;;;;;;;;;;5064883;28;20036;-75
2022/03/10 18:32:11;;;;;;;14.10;3.00;;;;;;;;;;5052926;28;20476;-74
2022/03/10 18:34:37;;;;;;;13.23;2.72;;;;;;;;;;5057130;28;20024;-75
2022/03/10 18:37:06;;;;;;;13.80;2.70;;;;;;;;;;5067809;28;20483;-76
2022/03/10 18:39:33;;;;;;;9.43;2.85;;;;;;;;;;5067880;28;20036;-75
2022/03/10 18:42:02;;;;;;;7.88;2.55;;;;;;;;;;5067956;28;20527;-75
2022/03/10 18:44:31;;;;;;;5.05;2.35;;;;;;;;;;5070801;28;20381;-75
2022/03/10 18:46:58;;;;;;;8.50;2.15;;;;;;;;;;5063580;28;20045;-75
2022/03/10 18:49:31;;;;;;;8.77;3.08;;;;;;;;;;5052621;28;20526;-74
2022/03/10 18:51:59;;;;;;;5.57;2.78;;;;;;;;;;5052833;28;20029;-75
2022/03/10 18:54:26;;;;;;;9.55;3.38;;;;;;;;;;5052792;28;20044;-74
2022/03/10 18:56:53;;;;;;;8.40;2.80;;;;;;;;;;5049207;28;20496;-75
2022/03/10 18:59:19;;;;;;;7.30;2.60;;;;;;;;;;5062985;28;20025;-75
2022/03/10 19:01:46;;;;;;;7.13;2.42;;;;;;;;;;5047621;28;20025;-75
2022/03/10 19:04:13;;;;;;;6.45;2.83;;;;;;;;;;5049158;28;20024;-75
2022/03/10 19:06:40;;;;;;;8.98;2.20;;;;;;;;;;5049623;28;20061;-75
2022/03/10 19:09:07;;;;;;;6.82;2.55;;;;;;;;;;5052514;28;20021;-75
2022/03/10 19:11:34;;;;;;;8.52;3.13;;;;;;;;;;5052460;28;20463;-75
2022/03/10 19:14:04;;;;;;;4.50;2.33;;;;;;;;;;5052449;28;20546;-75
2022/03/10 19:16:31;;;;;;;5.88;2.53;;;;;;;;;;5072516;28;20344;-75
2022/03/10 19:18:58;;;;;;;8.02;2.83;;;;;;;;;;5069415;28;20067;-75
2022/03/10 19:21:25;;;;;;;5.35;2.53;;;;;;;;;;5066924;28;20138;-76
2022/03/10 19:23:52;;;;;;;6.97;2.53;;;;;;;;;;5067291;28;20024;-75
2022/03/10 19:26:18;;;;;;;6.13;2.33;;;;;;;;;;5065577;28;20040;-76
2022/03/10 19:28:46;;;;;;;9.07;2.80;;;;;;;;;;5049751;28;20025;-76
2022/03/10 19:31:13;;;;;;;7.72;2.75;;;;;;;;;;5052190;28;20037;-75
2022/03/10 19:33:40;;;;;;;10.80;2.47;;;;;;;;;;5052277;28;20021;-75
2022/03/10 19:36:07;;;;;;;8.20;2.38;;;;;;;;;;5052196;28;20042;-75
2022/03/10 19:38:34;;;;;;;11.43;2.65;;;;;;;;;;5052267;28;20017;-75
2022/03/10 19:41:02;;;;;;;10.75;2.85;;;;;;;;;;5069626;28;20117;-75
2022/03/10 19:43:29;;;;;;;7.88;2.45;;;;;;;;;;5067136;28;20020;-76
2022/03/10 19:45:56;;;;;;;9.13;3.40;;;;;;;;;;5067006;28;20033;-75
2022/03/10 19:48:23;;;;;;;4.75;2.30;;;;;;;;;;5067074;28;20035;-75
2022/03/10 19:50:50;;;;;;;6.97;2.85;;;;;;;;;;5067765;28;20367;-75
2022/03/10 19:53:17;;;;;;;5.82;2.75;;;;;;;;;;5071792;28;20025;-75
2022/03/10 19:55:48;;;;;;;7.38;2.55;;;;;;;;;;5071704;28;20111;-75
2022/03/10 19:58:17;;;;;;;5.75;2.75;;;;;;;;;;5072076;28;20031;-74
2022/03/10 20:00:47;;;;;;;7.22;2.35;;;;;;;;;;5068875;28;20035;-77
2022/03/10 20:03:15;;;;;;;7.95;2.40;;;;;;;;;;5049279;28;20077;-73
2022/03/10 20:05:42;;;;;;;6.55;2.08;;;;;;;;;;5061447;28;20031;-77
2022/03/10 20:08:09;;;;;;;9.63;2.15;;;;;;;;;;5066479;28;20040;-75
2022/03/10 20:10:39;;;;;;;8.93;2.70;;;;;;;;;;5054695;28;20487;-75
2022/03/10 20:13:06;;;;;;;11.05;2.50;;;;;;;;;;5055607;28;20029;-75
2022/03/10 20:15:33;;;;;;;6.53;2.70;;;;;;;;;;5072373;28;20497;-75
2022/03/10 20:18:01;;;;;;;16.60;2.95;;;;;;;;;;5075532;28;20448;-75
2022/03/10 20:20:28;;;;;;;13.27;3.03;;;;;;;;;;5075676;28;20082;-72
2022/03/10 20:22:55;;;;;;;7.60;2.33;;;;;;;;;;5075672;28;20056;-75
2022/03/10 20:25:22;;;;;;;8.68;2.28;;;;;;;;;;5061167;28;20033;-75
2022/03/10 20:27:50;;;;;;;7.75;2.78;;;;;;;;;;5050535;28;20033;-75
2022/03/10 20:30:17;;;;;;;9.02;2.40;;;;;;;;;;5069294;28;20404;-75
2022/03/10 20:32:44;;;;;;;6.97;2.30;;;;;;;;;;5070595;28;20349;-75
2022/03/10 20:35:11;;;;;;;7.78;2.72;;;;;;;;;;5072198;28;20434;-75
2022/03/10 20:37:37;;;;;;;7.15;2.22;;;;;;;;;;5075285;28;20028;-75
2022/03/10 20:40:05;;;;;;;6.15;2.08;;;;;;;;;;5057967;28;20037;-75
2022/03/10 20:42:31;;;;;;;11.13;2.80;;;;;;;;;;5055252;28;20021;-75
2022/03/10 20:44:58;;;;;;;6.38;2.25;;;;;;;;;;5055331;28;20683;-75
2022/03/10 20:47:25;;;;;;;6.07;2.15;;;;;;;;;;5053075;28;20502;-75
2022/03/10 20:49:52;;;;;;;6.88;2.42;;;;;;;;;;5064947;28;20032;-75
2022/03/10 20:52:19;;;;;;;8.38;2.42;;;;;;;;;;5069927;28;20021;-75
2022/03/10 20:54:46;;;;;;;4.18;2.05;;;;;;;;;;5070019;28;20021;-76
2022/03/10 20:57:13;;;;;;;6.18;2.45;;;;;;;;;;5071017;28;20475;-75
2022/03/10 20:59:39;;;;;;;5.57;2.50;;;;;;;;;;5061606;28;20032;-75
2022/03/10 21:02:06;;;;;;;6.03;1.90;;;;;;;;;;5055068;28;20364;-75
2022/03/10 21:04:33;;;;;;;7.72;2.55;;;;;;;;;;5054595;28;20013;-75
2022/03/10 21:07:00;;;;;;;6.22;2.40;;;;;;;;;;5054840;28;20037;-75